sensor_id;sensor_type;location;lat;lon;timestamp;P1;durP1;ratioP1;P2;durP2;ratioP2
52342;SDS011;38277;51.972;4.624;2022-08-19T00:12:21;7.3;;;5.4;;
52342;SDS011;38277;51.972;4.624;2022-08-19T00:16:54;6.8;;;5.0;;
52342;SDS011;38277;51.972;4.624;2022-08-19T00:26:07;8.6;;;5.1;;
52342;SDS011;38277;51.972;4.624;2022-08-19T00:30:39;7.5;;;4.7;;
52342;SDS011;38277;51.972;4.624;2022-08-19T00:35:13;6.7;;;4.7;;
52342;SDS011;38277;51.972;4.624;2022-08-19T00:44:07;8.6;;;5.2;;
52342;SDS011;38277;51.972;4.624;2022-08-19T00:48:21;8.5;;;5.8;;
52342;SDS011;38277;51.972;4.624;2022-08-19T00:53:15;8.8;;;5.7;;
52342;SDS011;38277;51.972;4.624;2022-08-19T01:02:00;8.9;;;5.7;;
52342;SDS011;38277;51.972;4.624;2022-08-19T01:06:31;10.6;;;7.2;;
52342;SDS011;38277;51.972;4.624;2022-08-19T01:11:09;8.5;;;5.8;;
52342;SDS011;38277;51.972;4.624;2022-08-19T01:20:30;9.6;;;5.8;;
52342;SDS011;38277;51.972;4.624;2022-08-19T01:24:37;10.1;;;5.8;;
52342;SDS011;38277;51.972;4.624;2022-08-19T01:28:59;8.6;;;5.2;;
52342;SDS011;38277;51.972;4.624;2022-08-19T01:38:08;7.8;;;5.0;;
52342;SDS011;38277;51.972;4.624;2022-08-19T01:42:28;8.1;;;4.9;;
52342;SDS011;38277;51.972;4.624;2022-08-19T01:46:52;6.2;;;5.0;;
52342;SDS011;38277;51.972;4.624;2022-08-19T01:51:36;6.7;;;4.8;;
52342;SDS011;38277;51.972;4.624;2022-08-19T01:56:19;7.3;;;5.1;;
52342;SDS011;38277;51.972;4.624;2022-08-19T02:00:49;8.0;;;4.9;;
52342;SDS011;38277;51.972;4.624;2022-08-19T02:05:04;8.6;;;4.9;;
52342;SDS011;38277;51.972;4.624;2022-08-19T02:14:08;8.6;;;5.4;;
52342;SDS011;38277;51.972;4.624;2022-08-19T02:18:32;7.5;;;5.2;;
52342;SDS011;38277;51.972;4.624;2022-08-19T02:23:07;9.2;;;5.9;;
52342;SDS011;38277;51.972;4.624;2022-08-19T02:27:41;9.5;;;6.3;;
52342;SDS011;38277;51.972;4.624;2022-08-19T02:32:17;8.5;;;6.3;;
52342;SDS011;38277;51.972;4.624;2022-08-19T02:38:09;12.5;;;6.7;;
52342;SDS011;38277;51.972;4.624;2022-08-19T02:40:55;10.2;;;6.5;;
52342;SDS011;38277;51.972;4.624;2022-08-19T02:45:30;9.7;;;6.8;;
52342;SDS011;38277;51.972;4.624;2022-08-19T02:49:54;11.1;;;7.6;;
52342;SDS011;38277;51.972;4.624;2022-08-19T02:56:09;11.7;;;8.3;;
52342;SDS011;38277;51.972;4.624;2022-08-19T03:07:57;16.9;;;11.9;;
52342;SDS011;38277;51.972;4.624;2022-08-19T03:14:16;20.6;;;13.8;;
52342;SDS011;38277;51.972;4.624;2022-08-19T03:16:52;18.8;;;13.2;;
52342;SDS011;38277;51.972;4.624;2022-08-19T03:23:23;19.2;;;13.4;;
52342;SDS011;38277;51.972;4.624;2022-08-19T03:26:19;19.8;;;13.5;;
52342;SDS011;38277;51.972;4.624;2022-08-19T03:32:13;19.9;;;13.0;;
52342;SDS011;38277;51.972;4.624;2022-08-19T03:35:13;19.8;;;13.9;;
52342;SDS011;38277;51.972;4.624;2022-08-19T03:44:04;18.7;;;12.6;;
52342;SDS011;38277;51.972;4.624;2022-08-19T03:50:06;22.5;;;15.4;;
52342;SDS011;38277;51.972;4.624;2022-08-19T03:52:56;22.4;;;15.0;;
52342;SDS011;38277;51.972;4.624;2022-08-19T03:57:40;22.2;;;14.9;;
52342;SDS011;38277;51.972;4.624;2022-08-19T04:01:51;22.0;;;15.0;;
52342;SDS011;38277;51.972;4.624;2022-08-19T04:08:21;31.4;;;22.4;;
52342;SDS011;38277;51.972;4.624;2022-08-19T04:11:05;33.5;;;21.8;;
52342;SDS011;38277;51.972;4.624;2022-08-19T04:20:10;57.6;;;37.9;;
52342;SDS011;38277;51.972;4.624;2022-08-19T04:26:10;48.7;;;32.9;;
52342;SDS011;38277;51.972;4.624;2022-08-19T04:29:10;55.6;;;37.3;;
52342;SDS011;38277;51.972;4.624;2022-08-19T04:38:05;51.1;;;34.6;;
52342;SDS011;38277;51.972;4.624;2022-08-19T04:44:03;55.1;;;35.7;;
52342;SDS011;38277;51.972;4.624;2022-08-19T04:46:54;53.5;;;35.0;;
52342;SDS011;38277;51.972;4.624;2022-08-19T04:51:22;58.8;;;38.0;;
52342;SDS011;38277;51.972;4.624;2022-08-19T04:55:52;45.8;;;32.0;;
52342;SDS011;38277;51.972;4.624;2022-08-19T05:02:09;46.3;;;31.4;;
52342;SDS011;38277;51.972;4.624;2022-08-19T05:04:57;48.1;;;33.4;;
52342;SDS011;38277;51.972;4.624;2022-08-19T05:09:38;53.8;;;33.8;;
52342;SDS011;38277;51.972;4.624;2022-08-19T05:14:00;52.7;;;33.4;;
52342;SDS011;38277;51.972;4.624;2022-08-19T05:20:23;49.0;;;32.5;;
52342;SDS011;38277;51.972;4.624;2022-08-19T05:23:00;42.9;;;28.6;;
52342;SDS011;38277;51.972;4.624;2022-08-19T05:29:25;44.6;;;31.5;;
52342;SDS011;38277;51.972;4.624;2022-08-19T05:31:57;49.3;;;29.8;;
52342;SDS011;38277;51.972;4.624;2022-08-19T05:38:25;46.9;;;30.9;;
52342;SDS011;38277;51.972;4.624;2022-08-19T05:41:11;45.3;;;30.0;;
52342;SDS011;38277;51.972;4.624;2022-08-19T05:50:20;39.3;;;26.1;;
52342;SDS011;38277;51.972;4.624;2022-08-19T05:56:15;45.8;;;30.4;;
52342;SDS011;38277;51.972;4.624;2022-08-19T05:59:18;40.3;;;27.9;;
52342;SDS011;38277;51.972;4.624;2022-08-19T06:05:26;36.1;;;25.8;;
52342;SDS011;38277;51.972;4.624;2022-08-19T06:08:14;40.7;;;28.2;;
52342;SDS011;38277;51.972;4.624;2022-08-19T06:12:48;39.8;;;26.3;;
52342;SDS011;38277;51.972;4.624;2022-08-19T06:16:58;43.5;;;29.4;;
52342;SDS011;38277;51.972;4.624;2022-08-19T06:21:29;38.9;;;25.0;;
52342;SDS011;38277;51.972;4.624;2022-08-19T06:26:11;38.7;;;27.1;;
52342;SDS011;38277;51.972;4.624;2022-08-19T06:30:40;41.6;;;29.5;;
52342;SDS011;38277;51.972;4.624;2022-08-19T06:39:42;37.1;;;26.2;;
52342;SDS011;38277;51.972;4.624;2022-08-19T06:43:59;33.9;;;21.9;;
52342;SDS011;38277;51.972;4.624;2022-08-19T06:48:42;35.3;;;23.1;;
52342;SDS011;38277;51.972;4.624;2022-08-19T06:53:07;33.1;;;23.0;;
52342;SDS011;38277;51.972;4.624;2022-08-19T06:57:33;32.1;;;23.4;;
52342;SDS011;38277;51.972;4.624;2022-08-19T07:02:01;28.4;;;19.6;;
52342;SDS011;38277;51.972;4.624;2022-08-19T07:06:37;32.7;;;23.5;;
52342;SDS011;38277;51.972;4.624;2022-08-19T07:15:45;34.4;;;23.4;;
52342;SDS011;38277;51.972;4.624;2022-08-19T07:20:05;34.8;;;24.1;;
52342;SDS011;38277;51.972;4.624;2022-08-19T07:24:36;25.1;;;19.0;;
52342;SDS011;38277;51.972;4.624;2022-08-19T07:37:57;34.7;;;23.2;;
52342;SDS011;38277;51.972;4.624;2022-08-19T07:42:34;30.6;;;21.0;;
52342;SDS011;38277;51.972;4.624;2022-08-19T07:47:07;28.7;;;20.9;;
52342;SDS011;38277;51.972;4.624;2022-08-19T07:51:41;26.9;;;18.9;;
52342;SDS011;38277;51.972;4.624;2022-08-19T07:56:10;30.6;;;20.8;;
52342;SDS011;38277;51.972;4.624;2022-08-19T08:00:24;24.1;;;17.5;;
52342;SDS011;38277;51.972;4.624;2022-08-19T08:04:53;30.7;;;20.7;;
52342;SDS011;38277;51.972;4.624;2022-08-19T08:09:50;29.4;;;19.4;;
52342;SDS011;38277;51.972;4.624;2022-08-19T08:13:59;28.5;;;18.6;;
52342;SDS011;38277;51.972;4.624;2022-08-19T08:18:46;25.8;;;17.6;;
52342;SDS011;38277;51.972;4.624;2022-08-19T08:23:04;30.4;;;19.7;;
52342;SDS011;38277;51.972;4.624;2022-08-19T08:27:44;30.3;;;18.8;;
52342;SDS011;38277;51.972;4.624;2022-08-19T08:33:39;29.7;;;18.9;;
52342;SDS011;38277;51.972;4.624;2022-08-19T08:36:22;27.6;;;17.9;;
52342;SDS011;38277;51.972;4.624;2022-08-19T08:41:44;24.3;;;14.8;;
52342;SDS011;38277;51.972;4.624;2022-08-19T08:45:57;26.0;;;16.8;;
52342;SDS011;38277;51.972;4.624;2022-08-19T08:50:10;20.5;;;12.9;;
52342;SDS011;38277;51.972;4.624;2022-08-19T08:54:21;21.4;;;13.4;;
52342;SDS011;38277;51.972;4.624;2022-08-19T08:59:10;19.8;;;12.7;;
52342;SDS011;38277;51.972;4.624;2022-08-19T09:08:19;20.8;;;13.5;;
52342;SDS011;38277;51.972;4.624;2022-08-19T09:12:45;17.6;;;12.1;;
52342;SDS011;38277;51.972;4.624;2022-08-19T09:16:58;19.0;;;12.8;;
52342;SDS011;38277;51.972;4.624;2022-08-19T09:27:35;19.6;;;10.9;;
52342;SDS011;38277;51.972;4.624;2022-08-19T09:30:33;18.0;;;11.3;;
52342;SDS011;38277;51.972;4.624;2022-08-19T09:34:52;20.8;;;12.1;;
52342;SDS011;38277;51.972;4.624;2022-08-19T09:39:21;14.0;;;8.9;;
52342;SDS011;38277;51.972;4.624;2022-08-19T09:45:41;17.8;;;10.1;;
52342;SDS011;38277;51.972;4.624;2022-08-19T09:48:24;15.4;;;8.5;;
52342;SDS011;38277;51.972;4.624;2022-08-19T09:53:00;16.4;;;9.0;;
52342;SDS011;38277;51.972;4.624;2022-08-19T10:03:36;14.3;;;7.7;;
52342;SDS011;38277;51.972;4.624;2022-08-19T10:06:22;13.6;;;8.6;;
52342;SDS011;38277;51.972;4.624;2022-08-19T10:10:57;13.0;;;7.4;;
52342;SDS011;38277;51.972;4.624;2022-08-19T10:15:35;14.7;;;7.8;;
52342;SDS011;38277;51.972;4.624;2022-08-19T10:21:49;16.3;;;7.0;;
52342;SDS011;38277;51.972;4.624;2022-08-19T10:24:23;9.7;;;5.1;;
52342;SDS011;38277;51.972;4.624;2022-08-19T10:29:07;14.0;;;5.7;;
52342;SDS011;38277;51.972;4.624;2022-08-19T10:35:14;10.1;;;4.8;;
52342;SDS011;38277;51.972;4.624;2022-08-19T10:38:20;11.3;;;5.2;;
52342;SDS011;38277;51.972;4.624;2022-08-19T10:42:35;12.9;;;5.3;;
52342;SDS011;38277;51.972;4.624;2022-08-19T10:47:15;10.3;;;3.9;;
52342;SDS011;38277;51.972;4.624;2022-08-19T10:51:33;9.7;;;4.1;;
52342;SDS011;38277;51.972;4.624;2022-08-19T10:57:46;7.2;;;3.6;;
52342;SDS011;38277;51.972;4.624;2022-08-19T11:00:27;7.4;;;3.2;;
52342;SDS011;38277;51.972;4.624;2022-08-19T11:04:51;5.6;;;2.6;;
52342;SDS011;38277;51.972;4.624;2022-08-19T11:09:48;5.4;;;3.0;;
52342;SDS011;38277;51.972;4.624;2022-08-19T11:15:47;5.6;;;2.8;;
52342;SDS011;38277;51.972;4.624;2022-08-19T11:18:21;7.6;;;3.1;;
52342;SDS011;38277;51.972;4.624;2022-08-19T11:22:55;5.4;;;2.7;;
52342;SDS011;38277;51.972;4.624;2022-08-19T11:27:44;4.4;;;2.4;;
52342;SDS011;38277;51.972;4.624;2022-08-19T11:32:19;4.3;;;2.4;;
52342;SDS011;38277;51.972;4.624;2022-08-19T11:36:29;3.2;;;2.2;;
52342;SDS011;38277;51.972;4.624;2022-08-19T11:40:54;2.7;;;1.5;;
52342;SDS011;38277;51.972;4.624;2022-08-19T11:45:34;5.0;;;2.4;;
52342;SDS011;38277;51.972;4.624;2022-08-19T11:50:03;2.9;;;1.7;;
52342;SDS011;38277;51.972;4.624;2022-08-19T11:54:37;3.0;;;1.3;;
52342;SDS011;38277;51.972;4.624;2022-08-19T11:58:57;3.7;;;1.4;;
52342;SDS011;38277;51.972;4.624;2022-08-19T12:03:26;3.1;;;1.5;;
52342;SDS011;38277;51.972;4.624;2022-08-19T12:08:07;3.3;;;1.3;;
52342;SDS011;38277;51.972;4.624;2022-08-19T12:17:17;2.7;;;1.2;;
52342;SDS011;38277;51.972;4.624;2022-08-19T12:21:40;2.3;;;1.1;;
52342;SDS011;38277;51.972;4.624;2022-08-19T12:26:06;2.7;;;1.1;;
52342;SDS011;38277;51.972;4.624;2022-08-19T12:30:49;1.6;;;1.2;;
52342;SDS011;38277;51.972;4.624;2022-08-19T12:34:53;3.2;;;1.1;;
52342;SDS011;38277;51.972;4.624;2022-08-19T12:39:37;2.0;;;1.0;;
52342;SDS011;38277;51.972;4.624;2022-08-19T12:43:54;3.1;;;1.5;;
52342;SDS011;38277;51.972;4.624;2022-08-19T12:48:28;4.4;;;1.9;;
52342;SDS011;38277;51.972;4.624;2022-08-19T12:53:13;2.5;;;1.7;;
52342;SDS011;38277;51.972;4.624;2022-08-19T12:57:25;2.6;;;1.4;;
52342;SDS011;38277;51.972;4.624;2022-08-19T13:02:02;3.1;;;1.7;;
52342;SDS011;38277;51.972;4.624;2022-08-19T13:06:47;1.2;;;1.0;;
52342;SDS011;38277;51.972;4.624;2022-08-19T13:10:54;3.8;;;1.3;;
52342;SDS011;38277;51.972;4.624;2022-08-19T13:15:28;3.3;;;2.1;;
52342;SDS011;38277;51.972;4.624;2022-08-19T13:19:58;4.9;;;3.1;;
52342;SDS011;38277;51.972;4.624;2022-08-19T13:24:43;4.9;;;2.8;;
52342;SDS011;38277;51.972;4.624;2022-08-19T13:28:54;5.1;;;3.0;;
52342;SDS011;38277;51.972;4.624;2022-08-19T13:35:25;4.9;;;3.2;;
52342;SDS011;38277;51.972;4.624;2022-08-19T13:38:11;6.4;;;4.0;;
52342;SDS011;38277;51.972;4.624;2022-08-19T13:42:38;8.7;;;4.3;;
52342;SDS011;38277;51.972;4.624;2022-08-19T13:47:07;7.3;;;4.4;;
52342;SDS011;38277;51.972;4.624;2022-08-19T13:51:37;8.4;;;5.0;;
52342;SDS011;38277;51.972;4.624;2022-08-19T13:56:19;7.3;;;4.2;;
52342;SDS011;38277;51.972;4.624;2022-08-19T14:00:32;5.9;;;4.0;;
52342;SDS011;38277;51.972;4.624;2022-08-19T14:05:15;8.2;;;5.5;;
52342;SDS011;38277;51.972;4.624;2022-08-19T14:09:49;6.9;;;4.2;;
52342;SDS011;38277;51.972;4.624;2022-08-19T14:13:51;7.7;;;4.9;;
52342;SDS011;38277;51.972;4.624;2022-08-19T14:18:28;7.2;;;4.8;;
52342;SDS011;38277;51.972;4.624;2022-08-19T14:27:24;8.6;;;5.7;;
52342;SDS011;38277;51.972;4.624;2022-08-19T14:32:20;10.3;;;5.0;;
52342;SDS011;38277;51.972;4.624;2022-08-19T14:36:31;9.3;;;5.7;;
52342;SDS011;38277;51.972;4.624;2022-08-19T14:45:44;6.3;;;3.6;;
52342;SDS011;38277;51.972;4.624;2022-08-19T14:49:59;3.8;;;1.9;;
52342;SDS011;38277;51.972;4.624;2022-08-19T14:54:41;1.4;;;1.0;;
52342;SDS011;38277;51.972;4.624;2022-08-19T15:03:46;5.1;;;1.6;;
52342;SDS011;38277;51.972;4.624;2022-08-19T15:08:10;3.0;;;1.2;;
52342;SDS011;38277;51.972;4.624;2022-08-19T15:12:49;2.8;;;1.3;;
52342;SDS011;38277;51.972;4.624;2022-08-19T15:17:08;2.2;;;1.2;;
52342;SDS011;38277;51.972;4.624;2022-08-19T15:21:46;4.1;;;1.6;;
52342;SDS011;38277;51.972;4.624;2022-08-19T15:27:37;2.6;;;1.5;;
52342;SDS011;38277;51.972;4.624;2022-08-19T15:30:34;4.2;;;1.6;;
52342;SDS011;38277;51.972;4.624;2022-08-19T15:35:17;4.5;;;1.6;;
52342;SDS011;38277;51.972;4.624;2022-08-19T15:39:48;3.0;;;1.6;;
52342;SDS011;38277;51.972;4.624;2022-08-19T15:45:58;2.2;;;1.5;;
52342;SDS011;38277;51.972;4.624;2022-08-19T15:48:33;3.2;;;1.7;;
52342;SDS011;38277;51.972;4.624;2022-08-19T15:53:07;3.5;;;1.8;;
52342;SDS011;38277;51.972;4.624;2022-08-19T15:57:33;2.1;;;1.5;;
52342;SDS011;38277;51.972;4.624;2022-08-19T16:03:55;1.9;;;1.6;;
52342;SDS011;38277;51.972;4.624;2022-08-19T16:06:47;2.3;;;1.5;;
52342;SDS011;38277;51.972;4.624;2022-08-19T16:12:51;2.2;;;1.4;;
52342;SDS011;38277;51.972;4.624;2022-08-19T16:15:28;3.8;;;1.3;;
52342;SDS011;38277;51.972;4.624;2022-08-19T16:21:54;2.9;;;1.2;;
52342;SDS011;38277;51.972;4.624;2022-08-19T16:24:23;3.0;;;1.2;;
52342;SDS011;38277;51.972;4.624;2022-08-19T16:30:49;2.1;;;1.2;;
52342;SDS011;38277;51.972;4.624;2022-08-19T16:33:37;2.8;;;1.7;;
52342;SDS011;38277;51.972;4.624;2022-08-19T16:42:30;2.1;;;1.3;;
52342;SDS011;38277;51.972;4.624;2022-08-19T16:47:14;4.0;;;1.9;;
52342;SDS011;38277;51.972;4.624;2022-08-19T16:51:27;3.3;;;1.9;;
52342;SDS011;38277;51.972;4.624;2022-08-19T17:00:24;2.0;;;1.4;;
52342;SDS011;38277;51.972;4.624;2022-08-19T17:05:02;2.1;;;1.4;;
52342;SDS011;38277;51.972;4.624;2022-08-19T17:09:47;2.8;;;1.4;;
52342;SDS011;38277;51.972;4.624;2022-08-19T17:18:30;2.4;;;1.6;;
52342;SDS011;38277;51.972;4.624;2022-08-19T17:23:19;2.0;;;1.4;;
52342;SDS011;38277;51.972;4.624;2022-08-19T17:27:25;3.4;;;1.6;;
52342;SDS011;38277;51.972;4.624;2022-08-19T17:32:10;3.0;;;1.7;;
52342;SDS011;38277;51.972;4.624;2022-08-19T17:36:49;2.0;;;1.5;;
52342;SDS011;38277;51.972;4.624;2022-08-19T17:41:15;2.8;;;1.8;;
52342;SDS011;38277;51.972;4.624;2022-08-19T17:45:30;2.9;;;2.0;;
52342;SDS011;38277;51.972;4.624;2022-08-19T17:59:15;2.6;;;1.7;;
52342;SDS011;38277;51.972;4.624;2022-08-19T18:03:49;3.1;;;2.0;;
52342;SDS011;38277;51.972;4.624;2022-08-19T18:17:02;4.4;;;2.7;;
52342;SDS011;38277;51.972;4.624;2022-08-19T18:21:24;4.6;;;2.2;;
52342;SDS011;38277;51.972;4.624;2022-08-19T18:30:35;6.3;;;3.2;;
52342;SDS011;38277;51.972;4.624;2022-08-19T18:35:15;3.7;;;2.7;;
52342;SDS011;38277;51.972;4.624;2022-08-19T18:39:32;6.0;;;3.2;;
52342;SDS011;38277;51.972;4.624;2022-08-19T18:44:16;4.2;;;2.8;;
52342;SDS011;38277;51.972;4.624;2022-08-19T18:52:52;3.7;;;2.4;;
52342;SDS011;38277;51.972;4.624;2022-08-19T18:57:36;4.8;;;3.3;;
52342;SDS011;38277;51.972;4.624;2022-08-19T19:06:48;5.6;;;2.7;;
52342;SDS011;38277;51.972;4.624;2022-08-19T19:11:04;5.0;;;3.2;;
52342;SDS011;38277;51.972;4.624;2022-08-19T19:28:59;8.1;;;4.3;;
52342;SDS011;38277;51.972;4.624;2022-08-19T19:33:30;5.2;;;3.1;;
52342;SDS011;38277;51.972;4.624;2022-08-19T19:42:34;6.4;;;3.3;;
52342;SDS011;38277;51.972;4.624;2022-08-19T19:47:19;5.3;;;3.5;;
52342;SDS011;38277;51.972;4.624;2022-08-19T19:51:49;4.8;;;3.0;;
52342;SDS011;38277;51.972;4.624;2022-08-19T19:55:59;5.7;;;2.8;;
52342;SDS011;38277;51.972;4.624;2022-08-19T20:00:42;5.6;;;3.3;;
52342;SDS011;38277;51.972;4.624;2022-08-19T20:05:38;5.1;;;3.2;;
52342;SDS011;38277;51.972;4.624;2022-08-19T20:10:34;5.7;;;3.4;;
52342;SDS011;38277;51.972;4.624;2022-08-19T20:18:33;6.2;;;3.0;;
52342;SDS011;38277;51.972;4.624;2022-08-19T20:23:29;5.4;;;2.7;;
52342;SDS011;38277;51.972;4.624;2022-08-19T20:28:26;3.8;;;2.2;;
52342;SDS011;38277;51.972;4.624;2022-08-19T20:35:00;3.9;;;2.0;;
52342;SDS011;38277;51.972;4.624;2022-08-19T20:40:55;3.3;;;2.0;;
52342;SDS011;38277;51.972;4.624;2022-08-19T20:45:52;4.7;;;2.3;;
52342;SDS011;38277;51.972;4.624;2022-08-19T20:50:47;4.0;;;2.1;;
52342;SDS011;38277;51.972;4.624;2022-08-19T20:55:46;5.5;;;2.3;;
52342;SDS011;38277;51.972;4.624;2022-08-19T21:00:40;3.2;;;1.9;;
52342;SDS011;38277;51.972;4.624;2022-08-19T21:08:13;4.5;;;1.7;;
52342;SDS011;38277;51.972;4.624;2022-08-19T21:13:09;4.9;;;1.8;;
52342;SDS011;38277;51.972;4.624;2022-08-19T21:18:05;5.1;;;1.8;;
52342;SDS011;38277;51.972;4.624;2022-08-19T21:26:03;6.5;;;2.3;;
52342;SDS011;38277;51.972;4.624;2022-08-19T21:30:59;7.3;;;2.6;;
52342;SDS011;38277;51.972;4.624;2022-08-19T21:35:55;3.7;;;1.8;;
52342;SDS011;38277;51.972;4.624;2022-08-19T21:40:56;6.1;;;2.2;;
52342;SDS011;38277;51.972;4.624;2022-08-19T21:48:23;4.8;;;2.2;;
52342;SDS011;38277;51.972;4.624;2022-08-19T21:53:19;5.9;;;2.3;;
52342;SDS011;38277;51.972;4.624;2022-08-19T21:59:54;4.5;;;2.2;;
52342;SDS011;38277;51.972;4.624;2022-08-19T22:04:51;6.8;;;2.2;;
52342;SDS011;38277;51.972;4.624;2022-08-19T22:11:18;6.0;;;2.3;;
52342;SDS011;38277;51.972;4.624;2022-08-19T22:16:14;4.1;;;1.9;;
52342;SDS011;38277;51.972;4.624;2022-08-19T22:21:10;3.8;;;1.9;;
52342;SDS011;38277;51.972;4.624;2022-08-19T22:26:07;5.4;;;1.9;;
52342;SDS011;38277;51.972;4.624;2022-08-19T22:33:48;2.4;;;1.8;;
52342;SDS011;38277;51.972;4.624;2022-08-19T22:38:44;3.5;;;1.7;;
52342;SDS011;38277;51.972;4.624;2022-08-19T22:43:53;2.8;;;1.6;;
52342;SDS011;38277;51.972;4.624;2022-08-19T22:53:04;2.7;;;1.5;;
52342;SDS011;38277;51.972;4.624;2022-08-19T22:56:23;4.3;;;1.5;;
52342;SDS011;38277;51.972;4.624;2022-08-19T23:01:18;2.8;;;1.4;;
52342;SDS011;38277;51.972;4.624;2022-08-19T23:06:13;3.5;;;1.6;;
52342;SDS011;38277;51.972;4.624;2022-08-19T23:17:10;3.7;;;1.7;;
52342;SDS011;38277;51.972;4.624;2022-08-19T23:18:49;3.2;;;1.5;;
52342;SDS011;38277;51.972;4.624;2022-08-19T23:23:45;4.5;;;1.5;;
52342;SDS011;38277;51.972;4.624;2022-08-19T23:28:41;6.2;;;1.7;;
52342;SDS011;38277;51.972;4.624;2022-08-19T23:32:06;3.0;;;1.4;;
52342;SDS011;38277;51.972;4.624;2022-08-19T23:36:50;3.3;;;1.4;;
52342;SDS011;38277;51.972;4.624;2022-08-19T23:41:04;3.0;;;1.3;;
52342;SDS011;38277;51.972;4.624;2022-08-19T23:45:26;1.8;;;1.2;;
52342;SDS011;38277;51.972;4.624;2022-08-19T23:50:08;3.4;;;1.4;;
52342;SDS011;38277;51.972;4.624;2022-08-19T23:54:25;3.3;;;1.5;;
52342;SDS011;38277;51.972;4.624;2022-08-19T23:59:00;4.0;;;1.4;;
